Time;durP1;ratioP1;P1;durP2;ratioP2;P2;SDS_P1;SDS_P2;PMS_P1;PMS_P2;Temp;Humidity;BMP_temperature;BMP_pressure;BME280_temperature;BME280_humidity;BME280_pressure;Samples;Min_cycle;Max_cycle;Signal;HPM_P1;HPM_P2
2020/05/31 00:00:50;;;;;;;5.7;3.1;;;;;;;8.74;77.64648;940.1802;;;;
2020/05/31 00:03:15;;;;;;;3.6;2.5;;;;;;;8.59;78.30078;940.2023;;;;
2020/05/31 00:05:41;;;;;;;4.7;3.2;;;;;;;8.68;77.9873;940.1631;;;;
2020/05/31 00:08:07;;;;;;;4.1;3;;;;;;;8.74;77.74902;940.1469;;;;
2020/05/31 00:10:34;;;;;;;4.2;2.9;;;;;;;8.78;77.55078;940.2715;;;;
2020/05/31 00:13:05;;;;;;;3.7;2.6;;;;;;;8.8;77.3623;940.1965;;;;
2020/05/31 00:15:36;;;;;;;5;3;;;;;;;8.68;78.0332;940.2155;;;;
2020/05/31 00:18:02;;;;;;;4.1;2.9;;;;;;;8.64;78.44727;940.1934;;;;
2020/05/31 00:20:27;;;;;;;5.8;3;;;;;;;8.64;78.48145;940.1512;;;;
2020/05/31 00:22:53;;;;;;;3.6;2.9;;;;;;;8.6;78.30371;940.1216;;;;
2020/05/31 00:25:20;;;;;;;5.8;3;;;;;;;8.51;78.57129;940.1777;;;;
2020/05/31 00:27:48;;;;;;;5.7;3;;;;;;;8.49;78.72559;940.1154;;;;
2020/05/31 00:30:13;;;;;;;5.6;3.2;;;;;;;8.45;79.19629;940.1384;;;;
2020/05/31 00:32:44;;;;;;;5.8;3.6;;;;;;;8.36;79.60156;940.1229;;;;
2020/05/31 00:35:10;;;;;;;4.6;3.3;;;;;;;8.47;79.22266;940.0651;;;;
2020/05/31 00:37:34;;;;;;;4.8;3.2;;;;;;;8.44;78.88965;940.0684;;;;
2020/05/31 00:40:00;;;;;;;7.5;3.2;;;;;;;8.44;78.80859;940.0137;;;;
2020/05/31 00:42:29;;;;;;;4.5;3;;;;;;;8.47;78.72266;940.0817;;;;
2020/05/31 00:44:54;;;;;;;4.1;3;;;;;;;8.5;78.39941;939.9769;;;;
2020/05/31 00:47:21;;;;;;;4.3;2.9;;;;;;;8.53;78.21094;939.9289;;;;
2020/05/31 00:49:46;;;;;;;5.1;3.3;;;;;;;8.55;78.04395;939.915;;;;
2020/05/31 00:52:11;;;;;;;6.3;3.1;;;;;;;8.56;78;939.8929;;;;
2020/05/31 00:54:39;;;;;;;5.3;3;;;;;;;8.46;78.42676;939.9166;;;;
2020/05/31 00:57:04;;;;;;;6.2;3.2;;;;;;;8.38;78.87793;939.9179;;;;
2020/05/31 01:04:24;;;;;;;5.4;2.6;;;;;;;8.52;77.8916;939.8938;;;;
2020/05/31 01:06:49;;;;;;;5.9;3;;;;;;;8.47;78.21289;939.8842;;;;
2020/05/31 01:09:15;;;;;;;4.1;2.9;;;;;;;8.52;78.15332;939.8551;;;;
2020/05/31 01:11:41;;;;;;;4.3;2.9;;;;;;;8.54;77.99902;939.8571;;;;
2020/05/31 01:14:06;;;;;;;4.4;3.1;;;;;;;8.53;78.39355;939.8139;;;;
2020/05/31 01:16:31;;;;;;;4.4;3;;;;;;;8.55;78.63477;939.8301;;;;
2020/05/31 01:18:56;;;;;;;5.3;3.1;;;;;;;8.54;79.36133;939.795;;;;
2020/05/31 01:21:21;;;;;;;5.5;3.2;;;;;;;8.54;78.50977;939.6714;;;;
2020/05/31 01:23:51;;;;;;;4.8;3.2;;;;;;;8.52;79.30078;939.7249;;;;
2020/05/31 01:26:17;;;;;;;4.6;3.2;;;;;;;8.49;79.1709;939.691;;;;
2020/05/31 01:28:42;;;;;;;5.2;3.3;;;;;;;8.46;80.16602;939.7498;;;;
2020/05/31 01:31:07;;;;;;;7.1;3.5;;;;;;;8.49;79.84082;939.7831;;;;
2020/05/31 01:33:34;;;;;;;5.5;3.1;;;;;;;8.58;79.39063;939.8021;;;;
2020/05/31 01:36:03;;;;;;;4.2;3;;;;;;;8.64;78.6416;939.8141;;;;
2020/05/31 01:38:33;;;;;;;4.9;2.9;;;;;;;8.77;78.24414;939.8077;;;;
2020/05/31 01:40:58;;;;;;;4.6;3;;;;;;;8.72;78.92773;939.8003;;;;
2020/05/31 01:43:25;;;;;;;5.3;2.9;;;;;;;8.81;78.0791;939.6852;;;;
2020/05/31 01:45:50;;;;;;;4.9;2.9;;;;;;;8.77;78.6875;939.7855;;;;
2020/05/31 01:48:15;;;;;;;5.6;3.1;;;;;;;8.76;78.2998;939.7964;;;;
2020/05/31 01:50:41;;;;;;;3.8;2.7;;;;;;;8.85;77.46289;939.8627;;;;
2020/05/31 01:53:06;;;;;;;4.1;2.8;;;;;;;8.76;78.52539;939.8328;;;;
2020/05/31 01:55:32;;;;;;;5;2.9;;;;;;;8.9;77.4707;939.866;;;;
2020/05/31 01:57:57;;;;;;;4.6;3.1;;;;;;;8.79;77.60938;939.8198;;;;
2020/05/31 02:00:25;;;;;;;5.6;3.1;;;;;;;8.64;78.16406;939.8226;;;;
2020/05/31 02:03:01;;;;;;;4.5;2.8;;;;;;;8.72;78.09766;939.7829;;;;
2020/05/31 02:05:17;;;;;;;5;3.1;;;;;;;8.65;78.03906;939.7308;;;;
2020/05/31 02:07:42;;;;;;;4.7;3.1;;;;;;;8.56;78.63867;939.7161;;;;
2020/05/31 02:10:07;;;;;;;5.1;2.9;;;;;;;8.51;79.03906;939.6978;;;;
2020/05/31 02:12:35;;;;;;;4.6;3;;;;;;;8.49;80.85059;939.7472;;;;
2020/05/31 02:15:02;;;;;;;5.4;2.7;;;;;;;8.67;78.58984;939.7352;;;;
2020/05/31 02:17:36;;;;;;;4.3;2.7;;;;;;;8.71;78.27832;939.6605;;;;
2020/05/31 02:19:52;;;;;;;3.9;2.5;;;;;;;8.71;78.27832;939.6191;;;;
2020/05/31 02:22:17;;;;;;;6;2.8;;;;;;;8.76;78.12891;939.6075;;;;
2020/05/31 02:24:46;;;;;;;4;2.7;;;;;;;8.72;78.28125;939.5868;;;;
2020/05/31 02:29:35;;;;;;;3.9;2.7;;;;;;;8.63;79.28809;939.5217;;;;
2020/05/31 02:32:08;;;;;;;4.9;2.8;;;;;;;8.58;78.82227;939.4919;;;;
2020/05/31 02:34:30;;;;;;;4.6;2.7;;;;;;;8.56;79.0459;939.4906;;;;
2020/05/31 02:37:07;;;;;;;3.8;2.8;;;;;;;8.51;80.6875;939.4962;;;;
2020/05/31 02:41:49;;;;;;;4.2;2.7;;;;;;;8.53;80.35938;939.4981;;;;
2020/05/31 02:44:19;;;;;;;4;2.7;;;;;;;8.62;79.77344;939.4691;;;;
2020/05/31 02:49:06;;;;;;;6;2.8;;;;;;;8.65;79.33496;939.4102;;;;
2020/05/31 02:51:45;;;;;;;3.5;2.7;;;;;;;8.7;78.98145;939.4063;;;;
2020/05/31 02:54:59;;;;;;;4.2;2.9;;;;;;;8.61;79.01074;939.3158;;;;
2020/05/31 02:56:33;;;;;;;4.3;2.7;;;;;;;8.54;79.19238;939.2912;;;;
2020/05/31 02:59:42;;;;;;;4.4;2.8;;;;;;;8.52;79.23242;939.3964;;;;
2020/05/31 03:10:44;;;;;;;3.5;2.8;;;;;;;8.3;80.02051;939.2867;;;;
2020/05/31 03:16:20;;;;;;;4.5;3.1;;;;;;;7.93;81.43945;939.2407;;;;
2020/05/31 03:18:33;;;;;;;3.3;2.8;;;;;;;7.96;81.33105;939.2581;;;;
2020/05/31 03:21:53;;;;;;;5;3.3;;;;;;;7.99;81.16602;939.1794;;;;
2020/05/31 03:26:04;;;;;;;4.5;3.1;;;;;;;7.99;80.79199;939.2079;;;;
2020/05/31 03:28:25;;;;;;;5.2;3.1;;;;;;;8.07;80.53613;939.259;;;;
2020/05/31 03:30:50;;;;;;;5.6;3.1;;;;;;;8.11;80.30273;939.3104;;;;
2020/05/31 03:37:23;;;;;;;4.5;3.1;;;;;;;8.09;79.91309;939.3275;;;;
2020/05/31 03:38:14;;;;;;;4.7;2.9;;;;;;;7.96;80.32129;939.3381;;;;
2020/05/31 03:40:32;;;;;;;5.7;2.8;;;;;;;7.96;80.44629;939.3356;;;;
2020/05/31 03:42:55;;;;;;;3;2.7;;;;;;;8;80.46582;939.3547;;;;
2020/05/31 03:46:24;;;;;;;4.7;2.7;;;;;;;8.01;80.56836;939.3485;;;;
2020/05/31 03:48:08;;;;;;;5.4;3.3;;;;;;;7.77;81.26172;939.3861;;;;
2020/05/31 03:50:50;;;;;;;5.2;3.1;;;;;;;7.72;81.43457;939.3565;;;;
2020/05/31 03:52:48;;;;;;;5.2;3.3;;;;;;;7.65;81.8291;939.2377;;;;
2020/05/31 03:56:53;;;;;;;5.1;3.4;;;;;;;7.65;82.31641;939.2472;;;;
2020/05/31 03:57:35;;;;;;;4.4;3;;;;;;;7.62;82.27539;939.2449;;;;
2020/05/31 04:00:09;;;;;;;5.9;3.3;;;;;;;7.71;81.94141;939.3119;;;;
2020/05/31 04:05:12;;;;;;;5.3;3.1;;;;;;;7.75;81.9043;939.3136;;;;
2020/05/31 04:13:23;;;;;;;4.2;2.8;;;;;;;7.82;81.13574;939.3723;;;;
2020/05/31 04:15:55;;;;;;;4.5;2.9;;;;;;;7.83;81.6123;939.3709;;;;
2020/05/31 04:18:29;;;;;;;5.1;3.1;;;;;;;7.83;82.27051;939.4455;;;;
2020/05/31 04:25:45;;;;;;;5.3;2.7;;;;;;;8.09;80.0498;939.3228;;;;
2020/05/31 04:28:06;;;;;;;3.6;2.6;;;;;;;8.15;79.7666;939.4183;;;;
2020/05/31 04:30:47;;;;;;;3.7;2.7;;;;;;;8.2;80.25293;939.4186;;;;
2020/05/31 04:33:15;;;;;;;4.7;2.7;;;;;;;8.3;79.56543;939.4922;;;;
2020/05/31 04:35:29;;;;;;;3.7;2.7;;;;;;;8.22;79.1875;939.4509;;;;
2020/05/31 04:45:17;;;;;;;5.1;2.6;;;;;;;8.31;78.69629;939.5115;;;;
2020/05/31 04:47:45;;;;;;;5;2.6;;;;;;;8.42;78.33984;939.527;;;;
2020/05/31 04:50:07;;;;;;;6.3;2.8;;;;;;;8.39;78.30078;939.5466;;;;
2020/05/31 04:53:06;;;;;;;3.5;2.4;;;;;;;8.48;77.96289;939.5836;;;;
2020/05/31 04:57:29;;;;;;;5.2;2.6;;;;;;;8.51;77.84473;939.5446;;;;
2020/05/31 04:59:45;;;;;;;5;2.7;;;;;;;8.7;77.36719;939.5936;;;;
2020/05/31 05:02:13;;;;;;;5.7;2.7;;;;;;;8.76;77.0127;939.5843;;;;
2020/05/31 05:07:12;;;;;;;3.4;2.4;;;;;;;9.32;75.2002;939.4803;;;;
2020/05/31 05:12:00;;;;;;;4;2.2;;;;;;;9.52;73.48047;939.5942;;;;
2020/05/31 05:21:50;;;;;;;3;2.1;;;;;;;9.5;73.35254;939.6735;;;;
2020/05/31 05:26:29;;;;;;;3.5;2.3;;;;;;;9.65;72.15918;939.6665;;;;
2020/05/31 05:36:07;;;;;;;4.4;2.2;;;;;;;10.07;72.20801;939.6994;;;;
2020/05/31 05:38:34;;;;;;;4.4;2.4;;;;;;;10.45;70.86719;939.7416;;;;
2020/05/31 05:41:03;;;;;;;3.8;2.1;;;;;;;10.61;69.68164;939.6806;;;;
2020/05/31 05:43:30;;;;;;;3.8;2.3;;;;;;;10.87;69.15234;939.6378;;;;
2020/05/31 05:48:14;;;;;;;3;1.9;;;;;;;11.73;66.42871;939.6337;;;;
2020/05/31 05:50:36;;;;;;;3.7;2;;;;;;;12.05;65.22852;939.5569;;;;
2020/05/31 05:52:56;;;;;;;2.5;1.9;;;;;;;12.32;64.69434;939.5545;;;;
2020/05/31 05:55:28;;;;;;;3.7;1.7;;;;;;;13.11;61.91797;939.5637;;;;
2020/05/31 05:58:55;;;;;;;2.5;1.7;;;;;;;13.76;59.96484;939.5173;;;;
2020/05/31 06:03:50;;;;;;;2.7;1.7;;;;;;;15.19;55.17578;939.4704;;;;
2020/05/31 06:05:39;;;;;;;4;1.9;;;;;;;15.86;52.40527;939.4009;;;;
2020/05/31 06:07:53;;;;;;;4.1;1.6;;;;;;;16.17;50.5791;939.4078;;;;
2020/05/31 06:10:23;;;;;;;4.1;1.9;;;;;;;16.8;48.99609;939.3881;;;;
2020/05/31 06:13:07;;;;;;;4.2;1.5;;;;;;;17.14;47.16797;939.3044;;;;
2020/05/31 06:17:36;;;;;;;4.4;1.6;;;;;;;17.84;45.8623;939.2629;;;;
2020/05/31 06:24:47;;;;;;;3.2;1.7;;;;;;;17.42;46.1416;939.2403;;;;
2020/05/31 06:27:11;;;;;;;4.4;2;;;;;;;17.56;47.05078;939.2682;;;;
2020/05/31 06:32:01;;;;;;;2.7;1.5;;;;;;;18.13;44.02051;939.3056;;;;
2020/05/31 06:40:58;;;;;;;4.8;1.8;;;;;;;16.78;48.65723;939.2219;;;;
2020/05/31 06:41:57;;;;;;;3.6;1.6;;;;;;;18;47.75879;939.2433;;;;
2020/05/31 06:44:09;;;;;;;3.2;1.6;;;;;;;19.42;43.60254;939.2509;;;;
2020/05/31 06:49:05;;;;;;;5.4;1.5;;;;;;;21.15;41.12988;939.3281;;;;
2020/05/31 06:52:21;;;;;;;3.9;1.6;;;;;;;21.31;38.51074;939.3198;;;;
2020/05/31 06:53:55;;;;;;;6.4;1.7;;;;;;;22.12;36.01465;939.3036;;;;
2020/05/31 06:56:16;;;;;;;3.3;1.6;;;;;;;21.59;36.7207;939.3187;;;;
2020/05/31 06:58:45;;;;;;;2.4;1.4;;;;;;;21.69;35.44043;939.3045;;;;
2020/05/31 07:03:36;;;;;;;3.1;1.5;;;;;;;21.95;37.38379;939.3393;;;;
2020/05/31 07:05:53;;;;;;;3.2;1.5;;;;;;;22.47;36.27734;939.3489;;;;
2020/05/31 07:10:51;;;;;;;3.6;1.5;;;;;;;23.49;32.92676;939.353;;;;
2020/05/31 07:13:11;;;;;;;3.6;1.4;;;;;;;23.35;33.41016;939.2972;;;;
2020/05/31 07:15:52;;;;;;;3;1.5;;;;;;;23.63;34.19629;939.218;;;;
2020/05/31 07:20:31;;;;;;;1.8;1.3;;;;;;;24.2;31.56641;939.2247;;;;
2020/05/31 07:23:01;;;;;;;4.1;1.4;;;;;;;24.35;31.72949;939.2542;;;;
2020/05/31 07:25:21;;;;;;;5.1;1.6;;;;;;;23.69;34.71777;939.2509;;;;
2020/05/31 07:28:05;;;;;;;3.9;1.3;;;;;;;23.95;33.18555;939.2722;;;;
2020/05/31 07:30:11;;;;;;;3.1;1.5;;;;;;;23.54;35.27148;939.2967;;;;
2020/05/31 07:35:08;;;;;;;4.5;1.4;;;;;;;23.52;36.18652;939.2698;;;;
2020/05/31 07:37:27;;;;;;;3.1;1.4;;;;;;;23.57;33.84961;939.2765;;;;
2020/05/31 07:42:26;;;;;;;2.5;1.6;;;;;;;23.97;36.09375;939.3603;;;;
2020/05/31 07:44:42;;;;;;;3.4;1.7;;;;;;;24.38;33.6875;939.3669;;;;
2020/05/31 07:47:15;;;;;;;5;1.4;;;;;;;24.17;34.80273;939.3773;;;;
2020/05/31 07:49:33;;;;;;;3.5;1.4;;;;;;;24.66;33.20215;939.4034;;;;
2020/05/31 07:51:59;;;;;;;2.3;1.2;;;;;;;25.18;33.86621;939.3658;;;;
2020/05/31 07:54:24;;;;;;;5.5;1.5;;;;;;;25.29;32.43359;939.3407;;;;
2020/05/31 07:57:03;;;;;;;2.8;1.5;;;;;;;25.4;32.66699;939.3356;;;;
2020/05/31 07:59:17;;;;;;;3.8;1.4;;;;;;;25.93;32.07813;939.3508;;;;
2020/05/31 08:06:30;;;;;;;2;1.4;;;;;;;27.02;30.05859;939.3845;;;;
2020/05/31 08:16:30;;;;;;;2.4;1.3;;;;;;;26.68;28.48438;939.3688;;;;
2020/05/31 08:21:21;;;;;;;2.6;1.3;;;;;;;25.34;31.43359;939.3549;;;;
2020/05/31 08:26:31;;;;;;;2.5;1.4;;;;;;;25.68;30.59473;939.3881;;;;
2020/05/31 08:30:59;;;;;;;3.4;1.4;;;;;;;25.86;30.4541;939.4301;;;;
2020/05/31 08:33:22;;;;;;;2.8;1.5;;;;;;;25.9;31.23633;939.4342;;;;
2020/05/31 08:36:10;;;;;;;3.6;1.3;;;;;;;26.37;30.93848;939.4152;;;;
2020/05/31 08:45:55;;;;;;;4;1.5;;;;;;;26.27;31.14453;939.4327;;;;
2020/05/31 08:47:48;;;;;;;2.1;1.3;;;;;;;25.91;30.70508;939.4637;;;;
2020/05/31 08:50:01;;;;;;;2;1.2;;;;;;;25.14;32.15234;939.4384;;;;
2020/05/31 08:57:43;;;;;;;3.9;1.7;;;;;;;23.45;35.70996;939.5253;;;;
2020/05/31 08:59:57;;;;;;;2.6;1.5;;;;;;;23.31;36.2168;939.5458;;;;
2020/05/31 09:02:16;;;;;;;3.6;1.6;;;;;;;22.57;36.64941;939.5248;;;;
2020/05/31 09:04:39;;;;;;;2.9;1.7;;;;;;;22.13;38.13672;939.4997;;;;
2020/05/31 09:09:43;;;;;;;3;1.5;;;;;;;22.58;38.14063;939.4928;;;;
2020/05/31 09:16:49;;;;;;;3.5;1.7;;;;;;;22.48;37.90918;939.4455;;;;
2020/05/31 09:24:11;;;;;;;2.4;1.5;;;;;;;22.34;39.2334;939.4824;;;;
2020/05/31 09:31:25;;;;;;;6;1.4;;;;;;;22.95;36.31641;939.3523;;;;
2020/05/31 09:33:50;;;;;;;2.4;1.3;;;;;;;22.04;35.87891;939.3855;;;;
2020/05/31 09:36:08;;;;;;;5.2;1.1;;;;;;;21.7;37.33887;939.4444;;;;
2020/05/31 09:38:36;;;;;;;2.7;1.3;;;;;;;21.57;39.13086;939.3923;;;;
2020/05/31 09:41:00;;;;;;;2.7;1.5;;;;;;;20.9;38.82617;939.432;;;;
2020/05/31 09:45:54;;;;;;;2.8;1.2;;;;;;;20.91;39.97266;939.3242;;;;
2020/05/31 09:51:00;;;;;;;4.3;1.3;;;;;;;20.68;39.2627;939.4114;;;;
2020/05/31 09:53:26;;;;;;;3.4;1.3;;;;;;;20.29;38.59766;939.4533;;;;
2020/05/31 09:55:51;;;;;;;4.4;1.1;;;;;;;20.43;39.74316;939.3943;;;;
2020/05/31 09:58:04;;;;;;;1.5;1.1;;;;;;;20.7;39.69629;939.3988;;;;
2020/05/31 10:07:49;;;;;;;3.2;1.1;;;;;;;19.2;40.24902;939.3911;;;;
2020/05/31 10:15:11;;;;;;;2.3;1.1;;;;;;;19.53;37.17969;939.3267;;;;
2020/05/31 10:17:22;;;;;;;2.8;1;;;;;;;19.75;36.60352;939.3262;;;;
2020/05/31 10:22:24;;;;;;;1.5;0.8;;;;;;;20.44;37.54785;939.2656;;;;
2020/05/31 10:25:03;;;;;;;3.3;0.8;;;;;;;21;36.36816;939.2213;;;;
2020/05/31 10:27:16;;;;;;;1.9;0.9;;;;;;;21.33;36.37207;939.2511;;;;
2020/05/31 10:32:03;;;;;;;4;1;;;;;;;21.72;34.2832;939.2444;;;;
2020/05/31 10:34:19;;;;;;;2.2;0.7;;;;;;;22.01;34.29492;939.2644;;;;
2020/05/31 10:36:45;;;;;;;2.9;0.9;;;;;;;22.09;34.27734;939.2097;;;;
2020/05/31 10:39:18;;;;;;;3.5;0.9;;;;;;;22.4;32.66992;939.1581;;;;
2020/05/31 10:41:45;;;;;;;1.5;0.8;;;;;;;22.59;32.98926;939.2043;;;;
2020/05/31 10:44:15;;;;;;;1.4;0.7;;;;;;;22.72;32.72949;939.2137;;;;
2020/05/31 10:47:18;;;;;;;2.1;0.9;;;;;;;22.72;32.55273;939.2397;;;;
2020/05/31 10:53:48;;;;;;;1.7;0.9;;;;;;;22.17;33.91992;939.1778;;;;
2020/05/31 10:56:08;;;;;;;2.9;0.8;;;;;;;22.26;31.9209;939.1158;;;;
2020/05/31 11:06:18;;;;;;;2.3;0.8;;;;;;;21.49;32.50977;938.9717;;;;
2020/05/31 11:09:22;;;;;;;1.6;0.7;;;;;;;21.62;33.77148;939.0659;;;;
2020/05/31 11:11:07;;;;;;;2.1;0.8;;;;;;;21.56;33.9082;939.104;;;;
2020/05/31 11:13:13;;;;;;;1.7;0.8;;;;;;;21.87;32.53711;939.0477;;;;
2020/05/31 11:15:39;;;;;;;2;0.9;;;;;;;22.07;32.31836;938.9905;;;;
2020/05/31 11:18:03;;;;;;;1.4;0.7;;;;;;;22.17;31.84473;938.9832;;;;
2020/05/31 11:23:02;;;;;;;2.2;0.9;;;;;;;22.36;34.09863;938.9533;;;;
2020/05/31 11:25:38;;;;;;;4.6;0.9;;;;;;;21.68;34.19922;938.9344;;;;
2020/05/31 11:27:51;;;;;;;1.5;0.7;;;;;;;21.82;32.3584;939.0055;;;;
2020/05/31 11:32:37;;;;;;;4.8;1;;;;;;;21.73;34.22559;939.0016;;;;
2020/05/31 11:34:57;;;;;;;3.9;1;;;;;;;21.75;33.66406;938.9388;;;;
2020/05/31 11:37:28;;;;;;;2.4;0.7;;;;;;;21.79;32.75488;938.9827;;;;
2020/05/31 11:39:56;;;;;;;1.6;0.7;;;;;;;22;33.57813;938.9581;;;;
2020/05/31 11:42:21;;;;;;;9;1.2;;;;;;;21.82;32.56934;938.9147;;;;
2020/05/31 11:45:24;;;;;;;2.4;0.7;;;;;;;21.81;33.50488;938.9207;;;;
2020/05/31 11:47:19;;;;;;;4.1;0.8;;;;;;;21.67;32.96875;938.9558;;;;
2020/05/31 11:49:58;;;;;;;4.3;1;;;;;;;21.54;33.52051;939.0115;;;;
2020/05/31 11:53:51;;;;;;;3.9;0.8;;;;;;;21.77;32.70605;938.9592;;;;
2020/05/31 11:54:25;;;;;;;3.4;1;;;;;;;22.01;31.7041;938.9936;;;;
2020/05/31 11:56:51;;;;;;;3.3;0.9;;;;;;;22.25;30.9707;938.9554;;;;
2020/05/31 12:04:28;;;;;;;3.6;0.8;;;;;;;22.28;31.85156;938.9537;;;;
2020/05/31 12:09:09;;;;;;;3;1.2;;;;;;;22.55;32.49316;938.9143;;;;
2020/05/31 12:11:48;;;;;;;1.5;0.8;;;;;;;22.57;32.24805;938.9714;;;;
2020/05/31 12:13:55;;;;;;;3.4;0.9;;;;;;;22.28;30.69141;938.9942;;;;
2020/05/31 12:26:04;;;;;;;8.3;1.3;;;;;;;21.86;33.14648;939.0366;;;;
2020/05/31 12:28:26;;;;;;;4.6;1.2;;;;;;;21.54;32.73535;939.0125;;;;
2020/05/31 12:33:20;;;;;;;4.8;1.1;;;;;;;21.23;33.5791;939.0861;;;;
2020/05/31 12:35:58;;;;;;;16.7;1.5;;;;;;;21.37;32.33691;939.007;;;;
2020/05/31 12:41:37;;;;;;;8;1.3;;;;;;;21.51;34.13867;939.0652;;;;
2020/05/31 12:43:03;;;;;;;1.5;0.8;;;;;;;21.44;34.02734;939.1314;;;;
2020/05/31 12:47:53;;;;;;;1.5;0.9;;;;;;;21.27;33.97949;939.13;;;;
2020/05/31 12:50:23;;;;;;;2;0.8;;;;;;;20.73;34.4043;939.1438;;;;
2020/05/31 12:55:23;;;;;;;2.6;0.9;;;;;;;20.64;36.05762;939.135;;;;
2020/05/31 13:00:00;;;;;;;2.6;0.9;;;;;;;20.57;35.14063;939.1715;;;;
2020/05/31 13:02:32;;;;;;;4;1;;;;;;;20.62;36.0332;939.1442;;;;
2020/05/31 13:05:03;;;;;;;1.4;0.9;;;;;;;20.6;35.9375;939.1649;;;;
2020/05/31 13:10:21;;;;;;;1.1;0.8;;;;;;;20.59;35.62207;939.2322;;;;
2020/05/31 13:12:44;;;;;;;2;0.9;;;;;;;20.72;34.33496;939.2477;;;;
2020/05/31 13:14:36;;;;;;;2.5;0.8;;;;;;;20.85;36.81055;939.2031;;;;
2020/05/31 13:19:29;;;;;;;3.7;0.9;;;;;;;21.08;33.70801;939.2419;;;;
2020/05/31 13:21:57;;;;;;;1.8;0.8;;;;;;;21.36;32.92188;939.2009;;;;
2020/05/31 13:24:18;;;;;;;2.7;0.9;;;;;;;21.4;33.81445;939.1484;;;;
2020/05/31 13:27:21;;;;;;;3.1;1;;;;;;;21.51;33.0498;939.1324;;;;
2020/05/31 13:31:34;;;;;;;2.9;1.1;;;;;;;21.41;33.76758;939.1353;;;;
2020/05/31 13:36:30;;;;;;;1;0.7;;;;;;;21.34;33.11914;939.1691;;;;
2020/05/31 13:38:44;;;;;;;2.3;0.8;;;;;;;21.17;34.7207;939.1897;;;;
2020/05/31 13:42:27;;;;;;;4;0.9;;;;;;;21.04;34.17188;939.1436;;;;
2020/05/31 13:43:35;;;;;;;1.8;0.9;;;;;;;20.78;34.07031;939.2169;;;;
2020/05/31 13:46:12;;;;;;;1.6;0.8;;;;;;;20.75;34.80469;939.195;;;;
2020/05/31 13:51:02;;;;;;;2.1;0.9;;;;;;;20.3;34.94434;939.2598;;;;
2020/05/31 13:54:32;;;;;;;1.7;0.9;;;;;;;20.29;34.95508;939.29;;;;
2020/05/31 13:55:54;;;;;;;2.3;0.8;;;;;;;20.25;35.55859;939.2464;;;;
2020/05/31 13:58:26;;;;;;;1.1;0.8;;;;;;;20.26;35.03418;939.2133;;;;
2020/05/31 14:03:01;;;;;;;2.4;0.9;;;;;;;20.27;35.75977;939.267;;;;
2020/05/31 14:05:21;;;;;;;2.6;0.8;;;;;;;20.36;35.79004;939.2961;;;;
2020/05/31 14:10:16;;;;;;;2.3;0.9;;;;;;;20.5;35.05273;939.2364;;;;
2020/05/31 14:15:12;;;;;;;2.1;1;;;;;;;20.67;34.62305;939.308;;;;
2020/05/31 14:22:23;;;;;;;4.8;0.9;;;;;;;20.48;36.27832;939.2805;;;;
2020/05/31 14:24:48;;;;;;;1.4;0.8;;;;;;;20.22;34.87891;939.3158;;;;
2020/05/31 14:27:16;;;;;;;3.5;0.9;;;;;;;20.33;34.46875;939.3106;;;;
2020/05/31 14:29:40;;;;;;;1.7;0.9;;;;;;;20.39;36.2002;939.3109;;;;
2020/05/31 14:32:40;;;;;;;4.1;1;;;;;;;20.18;35.38965;939.3338;;;;
2020/05/31 14:39:17;;;;;;;2.7;0.9;;;;;;;20.17;34.99121;939.3083;;;;
2020/05/31 14:41:50;;;;;;;2.8;1;;;;;;;20.09;35.10254;939.2399;;;;
2020/05/31 14:44:11;;;;;;;1.1;0.7;;;;;;;20.2;35.68262;939.3631;;;;
2020/05/31 14:46:59;;;;;;;3.4;1.1;;;;;;;20.17;37.52539;939.2773;;;;
2020/05/31 14:49:06;;;;;;;1.3;0.8;;;;;;;20.2;36.76953;939.2789;;;;
2020/05/31 14:51:37;;;;;;;2.2;0.8;;;;;;;20.05;37.1416;939.2482;;;;
2020/05/31 14:53:52;;;;;;;7.3;1.2;;;;;;;20.03;37.14063;939.2253;;;;
2020/05/31 14:56:24;;;;;;;1.4;0.9;;;;;;;19.92;36.69922;939.2559;;;;
2020/05/31 15:01:10;;;;;;;1.8;0.8;;;;;;;19.81;35.75684;939.3513;;;;
2020/05/31 15:06:23;;;;;;;2.9;1;;;;;;;19.97;36.02539;939.3155;;;;
2020/05/31 15:15:53;;;;;;;2.5;1.1;;;;;;;19.9;35.84668;939.2791;;;;
2020/05/31 15:18:18;;;;;;;2.4;0.9;;;;;;;20.03;35.6582;939.2406;;;;
2020/05/31 15:20:53;;;;;;;2;0.9;;;;;;;19.82;36.14258;939.3398;;;;
2020/05/31 15:23:23;;;;;;;3.1;0.9;;;;;;;19.81;38.4043;939.2488;;;;
2020/05/31 15:28:45;;;;;;;1.5;0.8;;;;;;;19.71;36.85547;939.3345;;;;
2020/05/31 15:30:41;;;;;;;4.1;0.9;;;;;;;19.69;37.3916;939.2806;;;;
2020/05/31 15:32:56;;;;;;;6.8;1;;;;;;;19.58;37.95313;939.3209;;;;
2020/05/31 15:40:14;;;;;;;1.8;0.8;;;;;;;19.44;38.34863;939.291;;;;
2020/05/31 15:42:45;;;;;;;3.9;1.2;;;;;;;19.36;37.63184;939.3739;;;;
2020/05/31 15:45:01;;;;;;;2;1;;;;;;;19.29;37.67188;939.3061;;;;
2020/05/31 15:49:58;;;;;;;1.4;1;;;;;;;19.14;39.5918;939.3308;;;;
2020/05/31 15:52:16;;;;;;;2.5;0.9;;;;;;;19.13;38.47363;939.319;;;;
2020/05/31 15:54:51;;;;;;;3.3;0.9;;;;;;;19.11;38.4375;939.3734;;;;
2020/05/31 15:57:51;;;;;;;1.8;0.8;;;;;;;19.07;37.37305;939.2695;;;;
2020/05/31 15:59:40;;;;;;;2.8;0.9;;;;;;;18.86;37.32129;939.3245;;;;
2020/05/31 16:02:09;;;;;;;4.4;1.1;;;;;;;18.89;37.81152;939.3237;;;;
2020/05/31 16:04:31;;;;;;;4.3;0.9;;;;;;;18.91;38.80371;939.3033;;;;
2020/05/31 16:06:44;;;;;;;2.3;0.9;;;;;;;18.93;39.3418;939.3391;;;;
2020/05/31 16:09:07;;;;;;;1.5;1;;;;;;;18.87;39.14844;939.3727;;;;
2020/05/31 16:11:31;;;;;;;2.7;1.1;;;;;;;18.86;38.14746;939.3705;;;;
2020/05/31 16:13:56;;;;;;;2.7;0.9;;;;;;;18.91;39.30273;939.3937;;;;
2020/05/31 16:16:29;;;;;;;1.9;1.1;;;;;;;18.77;38.65137;939.3769;;;;
2020/05/31 16:21:20;;;;;;;1.7;1;;;;;;;18.82;39.35352;939.3984;;;;
2020/05/31 16:23:43;;;;;;;3;1.3;;;;;;;18.84;40.00781;939.3596;;;;
2020/05/31 16:26:14;;;;;;;2;0.9;;;;;;;18.91;40.25781;939.4228;;;;
2020/05/31 16:31:59;;;;;;;4.7;1;;;;;;;18.69;38.81934;939.4211;;;;
2020/05/31 16:37:03;;;;;;;2.1;1.1;;;;;;;18.55;39.7373;939.4122;;;;
2020/05/31 16:39:35;;;;;;;2.2;1;;;;;;;18.66;40.07227;939.5145;;;;
2020/05/31 16:41:48;;;;;;;2.3;1.1;;;;;;;18.69;41.32031;939.584;;;;
2020/05/31 16:44:19;;;;;;;3.6;0.9;;;;;;;18.62;40.11523;939.5739;;;;
2020/05/31 16:47:03;;;;;;;2.1;0.9;;;;;;;18.5;39.68555;939.5873;;;;
2020/05/31 16:49:49;;;;;;;1.7;0.9;;;;;;;18.41;40.89844;939.479;;;;
2020/05/31 16:51:34;;;;;;;2.6;1.1;;;;;;;18.43;40.62109;939.5208;;;;
2020/05/31 16:53:55;;;;;;;2.6;1;;;;;;;18;41.17383;939.5356;;;;
2020/05/31 16:56:21;;;;;;;3.9;1.1;;;;;;;18.03;41.79297;939.574;;;;
2020/05/31 16:59:13;;;;;;;2.2;1.1;;;;;;;17.95;42.69043;939.5728;;;;
2020/05/31 17:03:48;;;;;;;3.2;1;;;;;;;17.82;42.05078;939.5862;;;;
2020/05/31 17:06:25;;;;;;;1.9;1;;;;;;;17.79;42.50098;939.5526;;;;
2020/05/31 17:09:28;;;;;;;3.6;1.1;;;;;;;17.78;43.41699;939.4908;;;;
2020/05/31 17:12:38;;;;;;;2.2;1.1;;;;;;;17.59;42.92285;939.5858;;;;
2020/05/31 17:15:03;;;;;;;4.9;1.3;;;;;;;17.29;44.07715;939.6077;;;;
2020/05/31 17:22:36;;;;;;;1.6;1.1;;;;;;;17.03;43.69043;939.6937;;;;
2020/05/31 17:24:57;;;;;;;2.4;1.1;;;;;;;17.03;43.86426;939.71;;;;
2020/05/31 17:35:09;;;;;;;2.5;1;;;;;;;16.84;43.68262;939.9316;;;;
2020/05/31 17:38:39;;;;;;;2.4;0.9;;;;;;;16.88;43.93066;939.9874;;;;
2020/05/31 17:42:20;;;;;;;3.8;1;;;;;;;16.9;43.52734;939.9703;;;;
2020/05/31 17:45:00;;;;;;;3.9;1.2;;;;;;;16.83;43.79785;939.9606;;;;
2020/05/31 17:49:40;;;;;;;2.1;1;;;;;;;16.72;44.14648;940.0984;;;;
2020/05/31 17:52:21;;;;;;;2;1;;;;;;;16.75;44.40332;940.0715;;;;
2020/05/31 17:54:30;;;;;;;3.8;1.3;;;;;;;16.84;44.13477;940.1142;;;;
2020/05/31 17:56:54;;;;;;;2.5;1.3;;;;;;;16.87;43.80273;940.1362;;;;
2020/05/31 17:59:22;;;;;;;2.6;1.2;;;;;;;16.71;44.09961;940.1676;;;;
2020/05/31 18:04:15;;;;;;;3.1;1;;;;;;;16.68;44.55957;940.1655;;;;
2020/05/31 18:09:05;;;;;;;3.2;1.1;;;;;;;16.63;44.98242;940.2567;;;;
2020/05/31 18:15:37;;;;;;;2.2;1.1;;;;;;;16.49;44.77148;940.2618;;;;
2020/05/31 18:16:17;;;;;;;2.8;1.2;;;;;;;16.51;44.90137;940.2889;;;;
2020/05/31 18:18:58;;;;;;;2.2;1.1;;;;;;;16.54;44.9043;940.34;;;;
2020/05/31 18:21:07;;;;;;;2.4;1.1;;;;;;;16.5;44.97949;940.3373;;;;
2020/05/31 18:23:34;;;;;;;2.2;1.1;;;;;;;16.47;45.29004;940.2926;;;;
2020/05/31 18:28:18;;;;;;;3;1;;;;;;;16.27;45.4082;940.4204;;;;
2020/05/31 18:30:53;;;;;;;1.6;0.9;;;;;;;16.26;45.61621;940.4269;;;;
2020/05/31 18:33:25;;;;;;;2.5;1.1;;;;;;;16.09;46.37305;940.3782;;;;
2020/05/31 18:35:42;;;;;;;1.5;1.1;;;;;;;16.07;46.6123;940.4435;;;;
2020/05/31 18:38:10;;;;;;;2.6;1;;;;;;;16.15;46.22852;940.4461;;;;
2020/05/31 18:40:36;;;;;;;4;1.2;;;;;;;16.14;45.76465;940.4638;;;;
2020/05/31 18:45:33;;;;;;;2.3;1.1;;;;;;;16.15;45.71875;940.6124;;;;
2020/05/31 18:47:55;;;;;;;2;1;;;;;;;16.12;46.09863;940.6166;;;;
2020/05/31 18:55:20;;;;;;;2.5;1.2;;;;;;;15.98;46.93945;940.7065;;;;
2020/05/31 18:57:54;;;;;;;2;1.2;;;;;;;16.02;46.74609;940.7162;;;;
2020/05/31 19:00:10;;;;;;;2.2;1.1;;;;;;;16.01;46.05176;940.7819;;;;
2020/05/31 19:02:31;;;;;;;1.8;1.1;;;;;;;15.96;46.83301;940.726;;;;
2020/05/31 19:09:56;;;;;;;2.1;1.4;;;;;;;15.89;47.62402;940.875;;;;
2020/05/31 19:12:18;;;;;;;2.5;1.2;;;;;;;15.79;48.12109;940.9548;;;;
2020/05/31 19:17:10;;;;;;;2.9;1.2;;;;;;;15.8;48.91992;940.9653;;;;
2020/05/31 19:19:29;;;;;;;2.2;1.1;;;;;;;15.72;48.2168;941.0637;;;;
2020/05/31 19:24:22;;;;;;;3.5;1.1;;;;;;;15.6;50.50195;941.0673;;;;
2020/05/31 19:26:49;;;;;;;2.7;1.1;;;;;;;15.52;50.49414;941.1525;;;;
2020/05/31 19:34:05;;;;;;;4.5;1.4;;;;;;;15.61;49.38184;941.1998;;;;
2020/05/31 19:41:21;;;;;;;2.7;0.9;;;;;;;15.59;47.33594;941.2761;;;;
2020/05/31 19:50:52;;;;;;;3.6;1.2;;;;;;;15.58;47.62305;941.4043;;;;
2020/05/31 19:53:42;;;;;;;3.4;1;;;;;;;15.54;48.20801;941.4205;;;;
2020/05/31 19:56:06;;;;;;;3;1.1;;;;;;;15.55;48.00195;941.4229;;;;
2020/05/31 20:00:52;;;;;;;3.8;1.3;;;;;;;15.6;48.15723;941.3876;;;;
2020/05/31 20:05:26;;;;;;;3.9;1.7;;;;;;;15.5;49.24316;941.5323;;;;
2020/05/31 20:07:51;;;;;;;4.7;1.7;;;;;;;15.45;48.90234;941.4402;;;;
2020/05/31 20:10:23;;;;;;;4.8;1.7;;;;;;;15.44;50.06836;941.5084;;;;
2020/05/31 20:13:23;;;;;;;12.7;2;;;;;;;15.44;49.375;941.5381;;;;
2020/05/31 20:15:22;;;;;;;14.4;2;;;;;;;15.42;50.91992;941.5363;;;;
2020/05/31 20:17:56;;;;;;;5.7;1.4;;;;;;;15.29;48.35449;941.5215;;;;